sensor_id;sensor_type;location;lat;lon;timestamp;temperature;humidity
78775;DHT22;68119;43.398;3.676;2023-07-16T00:01:57;23.20;61.00
78775;DHT22;68119;43.398;3.676;2023-07-16T00:04:31;23.10;61.00
78775;DHT22;68119;43.398;3.676;2023-07-16T00:07:05;23.10;60.50
78775;DHT22;68119;43.398;3.676;2023-07-16T00:09:36;23.10;60.30
78775;DHT22;68119;43.398;3.676;2023-07-16T00:12:05;23.00;60.60
78775;DHT22;68119;43.398;3.676;2023-07-16T00:14:34;23.10;60.50
78775;DHT22;68119;43.398;3.676;2023-07-16T00:17:05;23.10;60.10
78775;DHT22;68119;43.398;3.676;2023-07-16T00:19:39;23.00;60.20
78775;DHT22;68119;43.398;3.676;2023-07-16T00:22:10;23.10;60.20
78775;DHT22;68119;43.398;3.676;2023-07-16T00:24:46;23.00;60.20
78775;DHT22;68119;43.398;3.676;2023-07-16T00:27:11;23.00;60.20
78775;DHT22;68119;43.398;3.676;2023-07-16T00:29:40;23.00;59.70
78775;DHT22;68119;43.398;3.676;2023-07-16T00:32:06;23.00;60.10
78775;DHT22;68119;43.398;3.676;2023-07-16T00:34:37;22.90;59.60
78775;DHT22;68119;43.398;3.676;2023-07-16T00:37:06;22.90;59.60
78775;DHT22;68119;43.398;3.676;2023-07-16T00:39:38;22.90;59.80
78775;DHT22;68119;43.398;3.676;2023-07-16T00:42:06;22.90;59.70
78775;DHT22;68119;43.398;3.676;2023-07-16T00:44:40;22.90;59.50
78775;DHT22;68119;43.398;3.676;2023-07-16T00:47:12;23.00;59.30
78775;DHT22;68119;43.398;3.676;2023-07-16T00:49:43;23.00;59.10
78775;DHT22;68119;43.398;3.676;2023-07-16T00:52:17;23.00;59.10
78775;DHT22;68119;43.398;3.676;2023-07-16T00:54:47;23.00;59.20
78775;DHT22;68119;43.398;3.676;2023-07-16T00:57:16;22.90;59.30
78775;DHT22;68119;43.398;3.676;2023-07-16T00:59:47;22.90;58.90
78775;DHT22;68119;43.398;3.676;2023-07-16T01:02:19;23.00;58.70
78775;DHT22;68119;43.398;3.676;2023-07-16T01:04:47;22.90;58.30
78775;DHT22;68119;43.398;3.676;2023-07-16T01:07:20;22.90;58.00
78775;DHT22;68119;43.398;3.676;2023-07-16T01:09:53;22.80;58.00
78775;DHT22;68119;43.398;3.676;2023-07-16T01:12:22;22.80;58.00
78775;DHT22;68119;43.398;3.676;2023-07-16T01:14:50;22.80;57.90
78775;DHT22;68119;43.398;3.676;2023-07-16T01:17:23;22.80;58.20
78775;DHT22;68119;43.398;3.676;2023-07-16T01:19:54;22.70;58.20
78775;DHT22;68119;43.398;3.676;2023-07-16T01:25:50;22.70;58.20
78775;DHT22;68119;43.398;3.676;2023-07-16T01:31:17;22.60;58.20
78775;DHT22;68119;43.398;3.676;2023-07-16T01:33:51;22.60;58.20
78775;DHT22;68119;43.398;3.676;2023-07-16T01:36:23;22.60;58.20
78775;DHT22;68119;43.398;3.676;2023-07-16T01:38:54;22.60;58.30
78775;DHT22;68119;43.398;3.676;2023-07-16T01:41:22;22.50;58.60
78775;DHT22;68119;43.398;3.676;2023-07-16T01:43:51;22.50;58.10
78775;DHT22;68119;43.398;3.676;2023-07-16T01:46:27;22.50;58.20
78775;DHT22;68119;43.398;3.676;2023-07-16T01:48:58;22.50;58.00
78775;DHT22;68119;43.398;3.676;2023-07-16T01:51:24;22.50;58.10
78775;DHT22;68119;43.398;3.676;2023-07-16T01:53:52;22.50;58.30
78775;DHT22;68119;43.398;3.676;2023-07-16T01:56:24;22.40;58.70
78775;DHT22;68119;43.398;3.676;2023-07-16T01:58:53;22.50;58.50
78775;DHT22;68119;43.398;3.676;2023-07-16T02:01:30;22.50;58.30
78775;DHT22;68119;43.398;3.676;2023-07-16T02:04:01;22.50;58.20
78775;DHT22;68119;43.398;3.676;2023-07-16T02:06:34;22.50;58.10
78775;DHT22;68119;43.398;3.676;2023-07-16T02:09:08;22.50;58.30
78775;DHT22;68119;43.398;3.676;2023-07-16T02:11:36;22.50;58.30
78775;DHT22;68119;43.398;3.676;2023-07-16T02:14:10;22.50;58.40
78775;DHT22;68119;43.398;3.676;2023-07-16T02:16:36;22.50;58.40
78775;DHT22;68119;43.398;3.676;2023-07-16T02:19:07;22.50;58.40
78775;DHT22;68119;43.398;3.676;2023-07-16T02:21:38;22.50;58.30
78775;DHT22;68119;43.398;3.676;2023-07-16T02:24:14;22.50;58.30
78775;DHT22;68119;43.398;3.676;2023-07-16T02:26:43;22.50;58.50
78775;DHT22;68119;43.398;3.676;2023-07-16T02:29:14;22.40;58.50
78775;DHT22;68119;43.398;3.676;2023-07-16T02:31:46;22.50;58.50
78775;DHT22;68119;43.398;3.676;2023-07-16T02:34:14;22.50;58.40
78775;DHT22;68119;43.398;3.676;2023-07-16T02:36:42;22.40;58.60
78775;DHT22;68119;43.398;3.676;2023-07-16T02:39:10;22.30;58.90
78775;DHT22;68119;43.398;3.676;2023-07-16T02:41:42;22.30;59.00
78775;DHT22;68119;43.398;3.676;2023-07-16T02:44:15;22.30;58.90
78775;DHT22;68119;43.398;3.676;2023-07-16T02:46:46;22.30;59.00
78775;DHT22;68119;43.398;3.676;2023-07-16T02:49:16;22.30;59.00
78775;DHT22;68119;43.398;3.676;2023-07-16T02:51:44;22.30;59.20
78775;DHT22;68119;43.398;3.676;2023-07-16T02:54:18;22.30;59.10
78775;DHT22;68119;43.398;3.676;2023-07-16T02:56:48;22.30;59.30
78775;DHT22;68119;43.398;3.676;2023-07-16T02:59:20;22.20;59.40
78775;DHT22;68119;43.398;3.676;2023-07-16T03:01:53;22.20;59.30
78775;DHT22;68119;43.398;3.676;2023-07-16T03:04:24;22.20;59.40
78775;DHT22;68119;43.398;3.676;2023-07-16T03:06:55;22.20;59.50
78775;DHT22;68119;43.398;3.676;2023-07-16T03:09:28;22.20;59.50
78775;DHT22;68119;43.398;3.676;2023-07-16T03:12:02;22.10;59.40
78775;DHT22;68119;43.398;3.676;2023-07-16T03:14:32;22.10;59.60
78775;DHT22;68119;43.398;3.676;2023-07-16T03:17:04;22.10;59.60
78775;DHT22;68119;43.398;3.676;2023-07-16T03:19:36;22.10;59.70
78775;DHT22;68119;43.398;3.676;2023-07-16T03:22:08;22.00;60.00
78775;DHT22;68119;43.398;3.676;2023-07-16T03:24:50;22.00;60.10
78775;DHT22;68119;43.398;3.676;2023-07-16T03:27:23;21.90;60.10
78775;DHT22;68119;43.398;3.676;2023-07-16T03:29:52;21.90;60.20
78775;DHT22;68119;43.398;3.676;2023-07-16T03:32:20;21.90;60.40
78775;DHT22;68119;43.398;3.676;2023-07-16T03:34:48;21.90;60.50
78775;DHT22;68119;43.398;3.676;2023-07-16T03:37:14;21.90;60.30
78775;DHT22;68119;43.398;3.676;2023-07-16T03:39:43;21.90;60.30
78775;DHT22;68119;43.398;3.676;2023-07-16T03:42:11;21.90;60.40
78775;DHT22;68119;43.398;3.676;2023-07-16T03:44:42;21.90;60.50
78775;DHT22;68119;43.398;3.676;2023-07-16T03:47:18;21.90;60.40
78775;DHT22;68119;43.398;3.676;2023-07-16T03:49:49;21.90;60.40
78775;DHT22;68119;43.398;3.676;2023-07-16T03:52:20;21.90;60.20
78775;DHT22;68119;43.398;3.676;2023-07-16T03:54:52;21.90;60.10
78775;DHT22;68119;43.398;3.676;2023-07-16T03:57:18;21.90;60.30
78775;DHT22;68119;43.398;3.676;2023-07-16T03:59:49;21.90;60.50
78775;DHT22;68119;43.398;3.676;2023-07-16T04:02:17;21.90;60.40
78775;DHT22;68119;43.398;3.676;2023-07-16T04:04:46;21.90;60.30
78775;DHT22;68119;43.398;3.676;2023-07-16T04:07:22;21.90;60.10
78775;DHT22;68119;43.398;3.676;2023-07-16T04:09:49;21.90;60.30
78775;DHT22;68119;43.398;3.676;2023-07-16T04:12:17;21.90;60.30
78775;DHT22;68119;43.398;3.676;2023-07-16T04:14:48;21.90;60.20
78775;DHT22;68119;43.398;3.676;2023-07-16T04:17:19;21.90;60.30
78775;DHT22;68119;43.398;3.676;2023-07-16T04:19:50;21.90;60.40
78775;DHT22;68119;43.398;3.676;2023-07-16T04:22:18;21.90;60.40
78775;DHT22;68119;43.398;3.676;2023-07-16T04:24:49;21.90;60.40
78775;DHT22;68119;43.398;3.676;2023-07-16T04:27:23;21.90;60.40
78775;DHT22;68119;43.398;3.676;2023-07-16T04:29:49;21.90;60.50
78775;DHT22;68119;43.398;3.676;2023-07-16T04:32:24;21.90;60.50
78775;DHT22;68119;43.398;3.676;2023-07-16T04:34:54;21.90;60.60
78775;DHT22;68119;43.398;3.676;2023-07-16T04:37:28;21.90;60.70
78775;DHT22;68119;43.398;3.676;2023-07-16T04:39:56;21.90;60.80
78775;DHT22;68119;43.398;3.676;2023-07-16T04:42:27;21.90;60.90
78775;DHT22;68119;43.398;3.676;2023-07-16T04:44:56;21.90;60.90
78775;DHT22;68119;43.398;3.676;2023-07-16T04:47:24;21.90;60.90
78775;DHT22;68119;43.398;3.676;2023-07-16T04:49:57;22.00;60.90
78775;DHT22;68119;43.398;3.676;2023-07-16T04:52:30;22.00;60.70
78775;DHT22;68119;43.398;3.676;2023-07-16T04:55:04;22.10;60.60
78775;DHT22;68119;43.398;3.676;2023-07-16T04:57:33;22.20;60.70
78775;DHT22;68119;43.398;3.676;2023-07-16T05:00:06;22.30;60.40
78775;DHT22;68119;43.398;3.676;2023-07-16T05:02:33;22.40;60.30
78775;DHT22;68119;43.398;3.676;2023-07-16T05:04:59;22.40;60.00
78775;DHT22;68119;43.398;3.676;2023-07-16T05:07:27;22.50;59.80
78775;DHT22;68119;43.398;3.676;2023-07-16T05:09:53;22.50;59.60
78775;DHT22;68119;43.398;3.676;2023-07-16T05:12:22;22.50;59.50
78775;DHT22;68119;43.398;3.676;2023-07-16T05:14:51;22.50;59.50
78775;DHT22;68119;43.398;3.676;2023-07-16T05:17:17;22.50;59.70
78775;DHT22;68119;43.398;3.676;2023-07-16T05:19:48;22.50;59.40
78775;DHT22;68119;43.398;3.676;2023-07-16T05:22:18;22.60;59.50
78775;DHT22;68119;43.398;3.676;2023-07-16T05:24:50;22.60;59.50
78775;DHT22;68119;43.398;3.676;2023-07-16T05:27:16;22.60;59.70
78775;DHT22;68119;43.398;3.676;2023-07-16T05:29:44;22.60;59.70
78775;DHT22;68119;43.398;3.676;2023-07-16T05:32:17;22.50;59.70
78775;DHT22;68119;43.398;3.676;2023-07-16T05:34:49;22.50;59.80
78775;DHT22;68119;43.398;3.676;2023-07-16T05:37:18;22.50;59.90
78775;DHT22;68119;43.398;3.676;2023-07-16T05:39:51;22.50;60.00
78775;DHT22;68119;43.398;3.676;2023-07-16T05:42:16;22.50;59.90
78775;DHT22;68119;43.398;3.676;2023-07-16T05:44:47;22.60;60.00
78775;DHT22;68119;43.398;3.676;2023-07-16T05:47:18;22.70;59.90
78775;DHT22;68119;43.398;3.676;2023-07-16T05:49:47;22.70;59.70
78775;DHT22;68119;43.398;3.676;2023-07-16T05:52:13;22.70;59.70
78775;DHT22;68119;43.398;3.676;2023-07-16T05:54:39;22.80;59.70
78775;DHT22;68119;43.398;3.676;2023-07-16T05:57:13;22.90;59.70
78775;DHT22;68119;43.398;3.676;2023-07-16T05:59:45;23.00;59.10
78775;DHT22;68119;43.398;3.676;2023-07-16T06:02:13;23.10;58.90
78775;DHT22;68119;43.398;3.676;2023-07-16T06:04:41;23.20;58.70
78775;DHT22;68119;43.398;3.676;2023-07-16T06:07:10;23.30;58.80
78775;DHT22;68119;43.398;3.676;2023-07-16T06:09:41;23.30;58.70
78775;DHT22;68119;43.398;3.676;2023-07-16T06:12:13;23.40;58.50
78775;DHT22;68119;43.398;3.676;2023-07-16T06:14:41;23.50;58.40
78775;DHT22;68119;43.398;3.676;2023-07-16T06:17:09;23.50;58.30
78775;DHT22;68119;43.398;3.676;2023-07-16T06:19:35;23.50;58.20
78775;DHT22;68119;43.398;3.676;2023-07-16T06:22:04;23.60;58.30
78775;DHT22;68119;43.398;3.676;2023-07-16T06:24:30;23.60;57.90
78775;DHT22;68119;43.398;3.676;2023-07-16T06:26:59;23.60;58.00
78775;DHT22;68119;43.398;3.676;2023-07-16T06:29:36;23.60;58.00
78775;DHT22;68119;43.398;3.676;2023-07-16T06:32:07;23.70;57.90
78775;DHT22;68119;43.398;3.676;2023-07-16T06:34:35;23.80;57.60
78775;DHT22;68119;43.398;3.676;2023-07-16T06:37:06;23.80;57.60
78775;DHT22;68119;43.398;3.676;2023-07-16T06:39:37;23.90;57.50
78775;DHT22;68119;43.398;3.676;2023-07-16T06:42:08;24.00;57.60
78775;DHT22;68119;43.398;3.676;2023-07-16T06:44:39;24.00;57.40
78775;DHT22;68119;43.398;3.676;2023-07-16T06:47:10;24.00;57.20
78775;DHT22;68119;43.398;3.676;2023-07-16T06:49:41;24.00;57.10
78775;DHT22;68119;43.398;3.676;2023-07-16T06:52:17;24.10;57.20
78775;DHT22;68119;43.398;3.676;2023-07-16T06:54:46;24.20;56.90
78775;DHT22;68119;43.398;3.676;2023-07-16T06:57:14;24.40;57.20
78775;DHT22;68119;43.398;3.676;2023-07-16T06:59:43;24.40;56.60
78775;DHT22;68119;43.398;3.676;2023-07-16T07:02:15;24.60;56.50
78775;DHT22;68119;43.398;3.676;2023-07-16T07:04:46;24.60;56.30
78775;DHT22;68119;43.398;3.676;2023-07-16T07:07:12;24.70;56.20
78775;DHT22;68119;43.398;3.676;2023-07-16T07:09:40;25.00;56.10
78775;DHT22;68119;43.398;3.676;2023-07-16T07:12:12;25.00;56.10
78775;DHT22;68119;43.398;3.676;2023-07-16T07:14:43;25.20;56.20
78775;DHT22;68119;43.398;3.676;2023-07-16T07:17:16;25.30;56.10
78775;DHT22;68119;43.398;3.676;2023-07-16T07:19:45;25.40;56.50
78775;DHT22;68119;43.398;3.676;2023-07-16T07:22:13;25.50;56.30
78775;DHT22;68119;43.398;3.676;2023-07-16T07:24:42;25.60;56.40
78775;DHT22;68119;43.398;3.676;2023-07-16T07:27:13;25.80;56.20
78775;DHT22;68119;43.398;3.676;2023-07-16T07:29:39;26.00;55.90
78775;DHT22;68119;43.398;3.676;2023-07-16T07:32:08;26.20;55.70
78775;DHT22;68119;43.398;3.676;2023-07-16T07:34:36;26.40;55.80
78775;DHT22;68119;43.398;3.676;2023-07-16T07:37:04;26.50;55.70
78775;DHT22;68119;43.398;3.676;2023-07-16T07:39:30;26.60;55.70
78775;DHT22;68119;43.398;3.676;2023-07-16T07:42:01;26.70;55.80
78775;DHT22;68119;43.398;3.676;2023-07-16T07:44:29;26.90;55.40
78775;DHT22;68119;43.398;3.676;2023-07-16T07:47:00;26.90;55.00
78775;DHT22;68119;43.398;3.676;2023-07-16T07:49:29;26.80;55.00
78775;DHT22;68119;43.398;3.676;2023-07-16T07:52:01;26.60;54.20
78775;DHT22;68119;43.398;3.676;2023-07-16T07:54:37;26.60;53.00
78775;DHT22;68119;43.398;3.676;2023-07-16T07:57:06;26.60;53.20
78775;DHT22;68119;43.398;3.676;2023-07-16T07:59:34;26.70;52.90
78775;DHT22;68119;43.398;3.676;2023-07-16T08:02:03;26.80;52.50
78775;DHT22;68119;43.398;3.676;2023-07-16T08:04:32;26.70;52.70
78775;DHT22;68119;43.398;3.676;2023-07-16T08:07:01;26.60;53.00
78775;DHT22;68119;43.398;3.676;2023-07-16T08:09:32;26.20;52.70
78775;DHT22;68119;43.398;3.676;2023-07-16T08:11:57;26.20;53.50
78775;DHT22;68119;43.398;3.676;2023-07-16T08:14:31;26.30;53.60
78775;DHT22;68119;43.398;3.676;2023-07-16T08:16:58;26.50;53.50
78775;DHT22;68119;43.398;3.676;2023-07-16T08:19:26;26.70;53.00
78775;DHT22;68119;43.398;3.676;2023-07-16T08:21:52;26.80;52.80
78775;DHT22;68119;43.398;3.676;2023-07-16T08:24:24;26.90;53.10
78775;DHT22;68119;43.398;3.676;2023-07-16T08:26:58;27.00;57.40
78775;DHT22;68119;43.398;3.676;2023-07-16T08:29:27;26.50;59.80
78775;DHT22;68119;43.398;3.676;2023-07-16T08:31:52;26.10;61.00
78775;DHT22;68119;43.398;3.676;2023-07-16T08:34:24;26.00;61.20
78775;DHT22;68119;43.398;3.676;2023-07-16T08:36:53;25.90;61.30
78775;DHT22;68119;43.398;3.676;2023-07-16T08:39:21;25.70;61.90
78775;DHT22;68119;43.398;3.676;2023-07-16T08:41:53;25.60;62.30
78775;DHT22;68119;43.398;3.676;2023-07-16T08:44:23;25.50;62.50
78775;DHT22;68119;43.398;3.676;2023-07-16T08:46:50;25.50;62.30
78775;DHT22;68119;43.398;3.676;2023-07-16T08:49:21;25.40;62.50
78775;DHT22;68119;43.398;3.676;2023-07-16T08:51:53;25.50;62.50
78775;DHT22;68119;43.398;3.676;2023-07-16T08:54:22;25.60;62.10
78775;DHT22;68119;43.398;3.676;2023-07-16T08:56:48;25.60;61.70
78775;DHT22;68119;43.398;3.676;2023-07-16T08:59:17;25.70;62.10
78775;DHT22;68119;43.398;3.676;2023-07-16T09:01:52;25.60;62.60
78775;DHT22;68119;43.398;3.676;2023-07-16T09:04:23;25.70;62.30
78775;DHT22;68119;43.398;3.676;2023-07-16T09:06:49;26.00;61.60
78775;DHT22;68119;43.398;3.676;2023-07-16T09:09:25;26.00;61.20
78775;DHT22;68119;43.398;3.676;2023-07-16T09:11:51;26.00;60.40
78775;DHT22;68119;43.398;3.676;2023-07-16T09:14:20;25.80;61.00
78775;DHT22;68119;43.398;3.676;2023-07-16T09:16:55;25.60;61.40
78775;DHT22;68119;43.398;3.676;2023-07-16T09:19:22;25.60;62.10
78775;DHT22;68119;43.398;3.676;2023-07-16T09:21:48;25.80;61.00
78775;DHT22;68119;43.398;3.676;2023-07-16T09:24:14;25.70;61.20
78775;DHT22;68119;43.398;3.676;2023-07-16T09:26:56;25.80;61.30
78775;DHT22;68119;43.398;3.676;2023-07-16T09:29:27;25.80;61.80
78775;DHT22;68119;43.398;3.676;2023-07-16T09:32:00;25.80;61.00
78775;DHT22;68119;43.398;3.676;2023-07-16T09:34:33;26.00;61.10
78775;DHT22;68119;43.398;3.676;2023-07-16T09:37:04;26.00;60.90
78775;DHT22;68119;43.398;3.676;2023-07-16T09:39:38;25.90;60.60
78775;DHT22;68119;43.398;3.676;2023-07-16T09:42:10;25.90;60.90
78775;DHT22;68119;43.398;3.676;2023-07-16T09:44:44;26.10;60.40
78775;DHT22;68119;43.398;3.676;2023-07-16T09:47:13;26.00;60.50
78775;DHT22;68119;43.398;3.676;2023-07-16T09:49:41;26.20;60.60
78775;DHT22;68119;43.398;3.676;2023-07-16T09:52:17;26.10;60.20
78775;DHT22;68119;43.398;3.676;2023-07-16T09:54:49;25.90;60.60
78775;DHT22;68119;43.398;3.676;2023-07-16T09:57:16;26.00;61.20
78775;DHT22;68119;43.398;3.676;2023-07-16T09:59:45;26.40;60.50
78775;DHT22;68119;43.398;3.676;2023-07-16T10:02:16;26.50;60.10
78775;DHT22;68119;43.398;3.676;2023-07-16T10:04:48;26.60;59.90
78775;DHT22;68119;43.398;3.676;2023-07-16T10:07:22;26.70;59.30
78775;DHT22;68119;43.398;3.676;2023-07-16T10:09:56;26.80;58.80
78775;DHT22;68119;43.398;3.676;2023-07-16T10:12:26;27.10;58.40
78775;DHT22;68119;43.398;3.676;2023-07-16T10:14:58;27.20;57.10
78775;DHT22;68119;43.398;3.676;2023-07-16T10:17:31;26.80;58.80
78775;DHT22;68119;43.398;3.676;2023-07-16T10:20:10;27.00;58.30
78775;DHT22;68119;43.398;3.676;2023-07-16T10:22:42;26.60;57.90
78775;DHT22;68119;43.398;3.676;2023-07-16T10:25:23;26.80;58.60
78775;DHT22;68119;43.398;3.676;2023-07-16T10:27:52;27.20;58.20
78775;DHT22;68119;43.398;3.676;2023-07-16T10:30:24;27.50;57.80
78775;DHT22;68119;43.398;3.676;2023-07-16T10:32:54;27.70;57.70
78775;DHT22;68119;43.398;3.676;2023-07-16T10:35:25;27.80;57.10
78775;DHT22;68119;43.398;3.676;2023-07-16T10:37:54;27.90;56.50
78775;DHT22;68119;43.398;3.676;2023-07-16T10:40:22;27.80;57.10
78775;DHT22;68119;43.398;3.676;2023-07-16T10:42:48;27.10;57.70
78775;DHT22;68119;43.398;3.676;2023-07-16T10:45:16;27.20;58.20
78775;DHT22;68119;43.398;3.676;2023-07-16T10:47:53;27.50;57.70
78775;DHT22;68119;43.398;3.676;2023-07-16T10:50:22;27.20;58.70
78775;DHT22;68119;43.398;3.676;2023-07-16T10:52:52;26.80;59.40
78775;DHT22;68119;43.398;3.676;2023-07-16T10:55:20;27.00;59.80
78775;DHT22;68119;43.398;3.676;2023-07-16T10:57:52;27.00;59.80
78775;DHT22;68119;43.398;3.676;2023-07-16T11:00:22;27.40;59.20
78775;DHT22;68119;43.398;3.676;2023-07-16T11:02:50;27.20;59.30
78775;DHT22;68119;43.398;3.676;2023-07-16T11:05:19;27.30;59.00
78775;DHT22;68119;43.398;3.676;2023-07-16T11:07:46;27.50;58.50
78775;DHT22;68119;43.398;3.676;2023-07-16T11:10:14;27.30;56.70
78775;DHT22;68119;43.398;3.676;2023-07-16T11:12:52;27.00;57.90
78775;DHT22;68119;43.398;3.676;2023-07-16T11:15:34;27.30;56.50
78775;DHT22;68119;43.398;3.676;2023-07-16T11:18:01;27.10;57.00
78775;DHT22;68119;43.398;3.676;2023-07-16T11:20:33;27.50;56.70
78775;DHT22;68119;43.398;3.676;2023-07-16T11:23:07;27.50;54.10
78775;DHT22;68119;43.398;3.676;2023-07-16T11:25:38;27.50;53.90
78775;DHT22;68119;43.398;3.676;2023-07-16T11:28:09;27.50;55.10
78775;DHT22;68119;43.398;3.676;2023-07-16T11:30:42;28.00;54.60
78775;DHT22;68119;43.398;3.676;2023-07-16T11:33:12;27.70;55.00
78775;DHT22;68119;43.398;3.676;2023-07-16T11:35:40;28.30;54.50
78775;DHT22;68119;43.398;3.676;2023-07-16T13:26:42;30.90;50.40
78775;DHT22;68119;43.398;3.676;2023-07-16T13:29:08;32.80;46.00
78775;DHT22;68119;43.398;3.676;2023-07-16T13:31:39;32.40;45.60
78775;DHT22;68119;43.398;3.676;2023-07-16T13:34:12;32.20;46.40
78775;DHT22;68119;43.398;3.676;2023-07-16T13:36:41;30.40;48.70
78775;DHT22;68119;43.398;3.676;2023-07-16T13:39:10;30.50;48.50
78775;DHT22;68119;43.398;3.676;2023-07-16T13:41:41;30.80;48.70
78775;DHT22;68119;43.398;3.676;2023-07-16T13:44:12;30.50;48.50
78775;DHT22;68119;43.398;3.676;2023-07-16T13:49:10;30.70;48.30
78775;DHT22;68119;43.398;3.676;2023-07-16T13:51:40;30.60;49.80
78775;DHT22;68119;43.398;3.676;2023-07-16T13:54:06;31.40;48.30
78775;DHT22;68119;43.398;3.676;2023-07-16T13:56:38;30.20;49.80
78775;DHT22;68119;43.398;3.676;2023-07-16T13:59:06;30.40;48.60
78775;DHT22;68119;43.398;3.676;2023-07-16T14:01:39;30.30;48.90
78775;DHT22;68119;43.398;3.676;2023-07-16T14:04:05;29.50;50.00
78775;DHT22;68119;43.398;3.676;2023-07-16T14:06:36;29.00;50.40
78775;DHT22;68119;43.398;3.676;2023-07-16T14:09:04;28.60;51.40
78775;DHT22;68119;43.398;3.676;2023-07-16T14:11:38;28.60;51.20
78775;DHT22;68119;43.398;3.676;2023-07-16T14:14:13;28.90;50.90
78775;DHT22;68119;43.398;3.676;2023-07-16T14:16:44;29.00;50.60
78775;DHT22;68119;43.398;3.676;2023-07-16T14:19:16;28.90;51.60
78775;DHT22;68119;43.398;3.676;2023-07-16T14:21:44;28.90;52.00
78775;DHT22;68119;43.398;3.676;2023-07-16T14:24:10;28.60;52.00
78775;DHT22;68119;43.398;3.676;2023-07-16T14:26:41;28.90;51.70
78775;DHT22;68119;43.398;3.676;2023-07-16T14:29:09;29.10;51.40
78775;DHT22;68119;43.398;3.676;2023-07-16T14:31:42;29.30;51.70
78775;DHT22;68119;43.398;3.676;2023-07-16T14:34:13;29.40;50.50
78775;DHT22;68119;43.398;3.676;2023-07-16T14:36:41;28.70;52.10
78775;DHT22;68119;43.398;3.676;2023-07-16T14:39:10;28.60;53.00
78775;DHT22;68119;43.398;3.676;2023-07-16T14:41:39;28.80;53.10
78775;DHT22;68119;43.398;3.676;2023-07-16T14:44:10;29.30;51.00
78775;DHT22;68119;43.398;3.676;2023-07-16T14:46:38;29.70;50.60
78775;DHT22;68119;43.398;3.676;2023-07-16T14:49:06;29.70;50.90
78775;DHT22;68119;43.398;3.676;2023-07-16T14:51:37;29.20;52.00
78775;DHT22;68119;43.398;3.676;2023-07-16T14:54:12;29.30;52.30
78775;DHT22;68119;43.398;3.676;2023-07-16T14:56:46;30.00;51.40
78775;DHT22;68119;43.398;3.676;2023-07-16T14:59:16;30.50;50.60
78775;DHT22;68119;43.398;3.676;2023-07-16T15:01:44;31.20;49.10
78775;DHT22;68119;43.398;3.676;2023-07-16T15:04:13;31.30;49.40
78775;DHT22;68119;43.398;3.676;2023-07-16T15:06:41;30.10;50.70
78775;DHT22;68119;43.398;3.676;2023-07-16T15:09:10;29.50;51.80
78775;DHT22;68119;43.398;3.676;2023-07-16T15:11:39;29.50;51.30
78775;DHT22;68119;43.398;3.676;2023-07-16T15:14:08;28.90;53.30
78775;DHT22;68119;43.398;3.676;2023-07-16T15:16:37;28.60;54.20
78775;DHT22;68119;43.398;3.676;2023-07-16T15:19:08;28.60;52.80
78775;DHT22;68119;43.398;3.676;2023-07-16T15:21:45;28.80;53.50
78775;DHT22;68119;43.398;3.676;2023-07-16T15:24:17;29.20;52.30
78775;DHT22;68119;43.398;3.676;2023-07-16T15:26:45;29.70;51.20
78775;DHT22;68119;43.398;3.676;2023-07-16T15:29:17;29.50;52.10
78775;DHT22;68119;43.398;3.676;2023-07-16T15:31:45;29.10;52.50
78775;DHT22;68119;43.398;3.676;2023-07-16T15:34:10;28.70;52.90
78775;DHT22;68119;43.398;3.676;2023-07-16T15:36:42;28.50;53.60
78775;DHT22;68119;43.398;3.676;2023-07-16T15:39:15;28.50;53.90
78775;DHT22;68119;43.398;3.676;2023-07-16T15:41:50;28.30;53.30
78775;DHT22;68119;43.398;3.676;2023-07-16T15:44:18;28.10;54.70
78775;DHT22;68119;43.398;3.676;2023-07-16T15:46:45;28.90;53.80
78775;DHT22;68119;43.398;3.676;2023-07-16T15:49:16;28.90;53.30
78775;DHT22;68119;43.398;3.676;2023-07-16T15:51:47;28.80;53.80
78775;DHT22;68119;43.398;3.676;2023-07-16T15:54:13;28.80;53.50
78775;DHT22;68119;43.398;3.676;2023-07-16T15:56:39;29.00;53.30
78775;DHT22;68119;43.398;3.676;2023-07-16T15:59:09;28.50;54.00
78775;DHT22;68119;43.398;3.676;2023-07-16T16:01:35;28.60;54.10
78775;DHT22;68119;43.398;3.676;2023-07-16T16:04:04;28.50;53.40
78775;DHT22;68119;43.398;3.676;2023-07-16T16:06:33;28.40;53.40
78775;DHT22;68119;43.398;3.676;2023-07-16T16:09:02;28.60;53.20
78775;DHT22;68119;43.398;3.676;2023-07-16T16:11:30;28.60;53.40
78775;DHT22;68119;43.398;3.676;2023-07-16T16:14:01;28.10;53.80
78775;DHT22;68119;43.398;3.676;2023-07-16T16:16:34;28.10;54.70
78775;DHT22;68119;43.398;3.676;2023-07-16T16:19:03;27.90;54.90
78775;DHT22;68119;43.398;3.676;2023-07-16T16:21:36;28.10;55.50
78775;DHT22;68119;43.398;3.676;2023-07-16T16:24:05;28.00;55.10
78775;DHT22;68119;43.398;3.676;2023-07-16T16:26:39;27.90;55.70
78775;DHT22;68119;43.398;3.676;2023-07-16T16:29:07;28.00;56.50
78775;DHT22;68119;43.398;3.676;2023-07-16T16:31:36;28.10;56.20
78775;DHT22;68119;43.398;3.676;2023-07-16T16:34:04;27.50;58.00
78775;DHT22;68119;43.398;3.676;2023-07-16T16:36:41;27.80;57.90
78775;DHT22;68119;43.398;3.676;2023-07-16T16:39:11;27.90;57.00
78775;DHT22;68119;43.398;3.676;2023-07-16T16:41:37;27.90;57.20
78775;DHT22;68119;43.398;3.676;2023-07-16T16:44:08;27.70;57.40
78775;DHT22;68119;43.398;3.676;2023-07-16T16:46:36;27.70;57.50
78775;DHT22;68119;43.398;3.676;2023-07-16T16:49:07;27.70;57.30
78775;DHT22;68119;43.398;3.676;2023-07-16T16:51:40;27.50;58.50
78775;DHT22;68119;43.398;3.676;2023-07-16T16:54:08;27.70;58.20
78775;DHT22;68119;43.398;3.676;2023-07-16T16:56:37;27.10;59.30
78775;DHT22;68119;43.398;3.676;2023-07-16T16:59:07;27.20;59.30
78775;DHT22;68119;43.398;3.676;2023-07-16T17:01:38;27.10;60.30
78775;DHT22;68119;43.398;3.676;2023-07-16T17:04:08;27.10;59.80
78775;DHT22;68119;43.398;3.676;2023-07-16T17:06:42;26.80;60.30
78775;DHT22;68119;43.398;3.676;2023-07-16T17:09:08;26.80;60.00
78775;DHT22;68119;43.398;3.676;2023-07-16T17:11:37;26.80;60.50
78775;DHT22;68119;43.398;3.676;2023-07-16T17:14:12;26.70;61.20
78775;DHT22;68119;43.398;3.676;2023-07-16T17:16:38;26.70;61.10
78775;DHT22;68119;43.398;3.676;2023-07-16T17:19:08;26.60;61.40
78775;DHT22;68119;43.398;3.676;2023-07-16T17:21:34;26.70;61.50
78775;DHT22;68119;43.398;3.676;2023-07-16T17:24:03;27.20;61.00
78775;DHT22;68119;43.398;3.676;2023-07-16T17:26:32;27.40;60.60
78775;DHT22;68119;43.398;3.676;2023-07-16T17:29:04;27.40;60.80
78775;DHT22;68119;43.398;3.676;2023-07-16T17:31:29;27.20;61.40
78775;DHT22;68119;43.398;3.676;2023-07-16T17:33:55;27.30;61.60
78775;DHT22;68119;43.398;3.676;2023-07-16T17:36:30;27.00;62.10
78775;DHT22;68119;43.398;3.676;2023-07-16T17:38:58;26.70;62.80
78775;DHT22;68119;43.398;3.676;2023-07-16T17:41:27;26.70;63.10
78775;DHT22;68119;43.398;3.676;2023-07-16T17:43:58;26.80;63.00
78775;DHT22;68119;43.398;3.676;2023-07-16T17:46:27;26.60;63.90